Time;durP1;ratioP1;P1;durP2;ratioP2;P2;SDS_P1;SDS_P2;PMS_P1;PMS_P2;Temp;Humidity;BMP_temperature;BMP_pressure;BME280_temperature;BME280_humidity;BME280_pressure;Samples;Min_cycle;Max_cycle;Signal;HPM_P1;HPM_P2
2022/01/15 00:00:23;;;;;;;;;;;5.70;99.90;;;;;;4996615;28;19921;-91
2022/01/15 00:02:52;;;;;;;;;;;6.20;99.90;;;;;;4964813;28;19928;-91
2022/01/15 00:05:30;;;;;;;;;;;;;;;;;;;;;
2022/01/15 00:07:57;;;;;;;;;;;6.50;99.90;;;;;;4977927;28;19922;-90
2022/01/15 00:10:40;;;;;;;;;;;6.50;99.90;;;;;;4963812;28;19929;-90
2022/01/15 00:13:20;;;;;;;;;;;;;;;;;;;;;
2022/01/15 00:16:03;;;;;;;;;;;;;;;;;;;;;
2022/01/15 00:19:00;;;;;;;;;;;6.80;99.90;;;;;;4966251;28;20372;-91
2022/01/15 00:21:44;;;;;;;;;;;6.70;99.90;;;;;;4966425;28;19972;-91
2022/01/15 00:24:28;;;;;;;;;;;5.60;99.90;;;;;;4999685;28;20372;-91
2022/01/15 00:27:15;;;;;;;;;;;;;;;;;;;;;
2022/01/15 00:29:53;;;;;;;;;;;6.20;99.90;;;;;;4999024;28;19921;-92
2022/01/15 00:32:29;;;;;;;;;;;5.90;99.90;;;;;;4995758;28;20012;-91
2022/01/15 00:34:57;;;;;;;;;;;6.60;99.90;;;;;;4999745;28;19985;-90
2022/01/15 00:37:32;;;;;;;;;;;5.70;99.90;;;;;;4999665;28;19929;-91
2022/01/15 00:40:27;;;;;;;;;;;6.80;99.90;;;;;;4998986;28;19928;-91
2022/01/15 00:42:55;;;;;;;;;;;7.30;99.90;;;;;;4998562;28;19921;-90
2022/01/15 00:45:39;;;;;;;;;;;;;;;;;;;;;
2022/01/15 00:48:27;;;;;;;;;;;7.60;99.90;;;;;;4985351;28;19972;-90
2022/01/15 00:51:23;;;;;;;;;;;;;;;;;;;;;
2022/01/15 00:53:54;;;;;;;;;;;5.80;99.90;;;;;;4999688;28;19921;-91
2022/01/15 00:56:23;;;;;;;;;;;7.10;99.90;;;;;;4983182;28;20340;-90
2022/01/15 00:59:18;;;;;;;;;;;;;;;;;;;;;
2022/01/15 01:02:14;;;;;;;;;;;;;;;;;;;;;
2022/01/15 01:04:48;;;;;;;;;;;6.00;99.90;;;;;;4993326;28;20351;-90
2022/01/15 01:07:18;;;;;;;;;;;6.30;99.90;;;;;;4978964;28;19992;-91
2022/01/15 01:10:02;;;;;;;;;;;5.80;99.90;;;;;;4978601;28;20292;-91
2022/01/15 01:22:12;;;;;;;;;;;;;;;;;;;;;
2022/01/15 01:24:32;;;;;;;;;;;;;;;;;;;;;
2022/01/15 01:27:23;;;;;;;;;;;;;;;;;;;;;
2022/01/15 01:30:21;;;;;;;;;;;;;;;;;;;;;
2022/01/15 01:33:00;;;;;;;;;;;5.50;99.90;;;;;;4978401;28;19926;-91
2022/01/15 01:35:59;;;;;;;;;;;;;;;;;;;;;
2022/01/15 01:39:00;;;;;;;;;;;6.70;99.90;;;;;;4980391;28;19972;-90
2022/01/15 01:41:36;;;;;;;;;;;6.20;99.90;;;;;;4962285;28;19922;-91
2022/01/15 01:44:30;;;;;;;;;;;6.90;99.90;;;;;;4962662;28;19921;-91
2022/01/15 01:47:05;;;;;;;;;;;6.20;99.90;;;;;;4975831;28;20387;-90
2022/01/15 01:49:52;;;;;;;;;;;;;;;;;;;;;
2022/01/15 01:52:31;;;;;;;;;;;6.10;99.90;;;;;;4978083;28;19929;-90
2022/01/15 01:55:06;;;;;;;;;;;;;;;;;;;;;
2022/01/15 01:57:45;;;;;;;;;;;;;;;;;;;;;
2022/01/15 02:00:23;;;;;;;;;;;;;;;;;;;;;
2022/01/15 02:02:57;;;;;;;;;;;6.20;99.90;;;;;;4982448;28;19972;-90
2022/01/15 02:05:32;;;;;;;;;;;6.50;99.90;;;;;;4982648;28;20007;-91
2022/01/15 02:08:10;;;;;;;;;;;;;;;;;;;;;
2022/01/15 02:10:44;;;;;;;;;;;5.90;99.90;;;;;;4981691;28;19971;-91
2022/01/15 02:13:23;;;;;;;;;;;;;;;;;;;;;
2022/01/15 02:15:58;;;;;;;;;;;6.50;99.90;;;;;;4978888;28;19921;-92
2022/01/15 02:18:34;;;;;;;;;;;6.90;99.90;;;;;;4979894;28;19947;-91
2022/01/15 02:23:50;;;;;;;;;;;5.30;99.90;;;;;;4997473;28;19932;-91
2022/01/15 02:29:26;;;;;;;;;;;6.80;99.90;;;;;;4983714;28;19921;-91
2022/01/15 02:32:09;;;;;;;;;;;6.30;99.90;;;;;;4997666;28;20340;-90
2022/01/15 02:34:48;;;;;;;;;;;6.60;99.90;;;;;;4983582;28;20020;-91
2022/01/15 02:37:21;;;;;;;;;;;6.50;99.90;;;;;;4982838;28;20368;-91
2022/01/15 02:42:43;;;;;;;;;;;6.40;99.90;;;;;;4973602;28;20394;-90
2022/01/15 02:45:33;;;;;;;;;;;5.50;99.90;;;;;;4963074;28;19921;-92
2022/01/15 02:48:11;;;;;;;;;;;6.20;99.90;;;;;;4961439;28;19929;-91
2022/01/15 02:57:02;;;;;;;;;;;;;;;;;;;;;
2022/01/15 02:59:36;;;;;;;;;;;6.00;99.90;;;;;;4976908;28;19925;-90
2022/01/15 03:02:36;;;;;;;;;;;6.10;99.90;;;;;;4978191;28;19925;-92
2022/01/15 03:05:22;;;;;;;;;;;5.90;99.90;;;;;;4974934;28;20391;-90
2022/01/15 03:07:58;;;;;;;;;;;7.40;99.90;;;;;;4976408;28;20368;-90
2022/01/15 03:10:34;;;;;;;;;;;5.30;99.90;;;;;;4976035;28;20280;-91
2022/01/15 03:13:19;;;;;;;;;;;;;;;;;;;;;
2022/01/15 03:19:06;;;;;;;;;;;;;;;;;;;;;
2022/01/15 03:22:02;;;;;;;;;;;;;;;;;;;;;
2022/01/15 03:24:30;;;;;;;;;;;6.30;99.90;;;;;;5000789;28;19925;-91
2022/01/15 03:27:24;;;;;;;;;;;7.30;99.90;;;;;;4992893;28;19929;-89
2022/01/15 03:30:14;;;;;;;;;;;5.80;99.90;;;;;;4991744;28;19925;-91
2022/01/15 03:32:39;;;;;;;;;;;6.60;99.90;;;;;;5004307;28;19948;-90
2022/01/15 03:35:19;;;;;;;;;;;6.70;99.90;;;;;;4992205;28;19930;-90
2022/01/15 03:38:26;;;;;;;;;;;5.90;99.90;;;;;;4991946;28;19926;-90
2022/01/15 03:43:40;;;;;;;;;;;5.90;99.90;;;;;;5005935;28;19922;-90
2022/01/15 03:46:08;;;;;;;;;;;5.80;99.90;;;;;;4993058;28;19925;-91
2022/01/15 03:48:46;;;;;;;;;;;;;;;;;;;;;
2022/01/15 03:51:20;;;;;;;;;;;6.40;99.90;;;;;;5007857;28;19949;-91
2022/01/15 03:53:45;;;;;;;;;;;5.30;99.90;;;;;;4991776;28;20057;-91
2022/01/15 03:56:13;;;;;;;;;;;5.50;99.90;;;;;;4993011;28;19932;-91
2022/01/15 04:02:06;;;;;;;;;;;5.30;99.90;;;;;;4964958;28;19922;-91
2022/01/15 04:04:52;;;;;;;;;;;;;;;;;;;;;
2022/01/15 04:07:45;;;;;;;;;;;;;;;;;;;;;
2022/01/15 04:10:22;;;;;;;;;;;6.00;99.90;;;;;;4977881;28;19980;-91
2022/01/15 04:13:15;;;;;;;;;;;;;;;;;;;;;
2022/01/15 04:16:02;;;;;;;;;;;;;;;;;;;;;
2022/01/15 04:18:39;;;;;;;;;;;;;;;;;;;;;
2022/01/15 04:21:40;;;;;;;;;;;5.80;99.90;;;;;;4978705;28;19925;-90
2022/01/15 04:30:47;;;;;;;;;;;5.50;99.90;;;;;;4991109;28;19929;-91
2022/01/15 04:33:18;;;;;;;;;;;5.70;99.90;;;;;;5014207;28;20371;-90
2022/01/15 04:35:46;;;;;;;;;;;5.00;99.90;;;;;;4999868;28;19921;-90
2022/01/15 04:44:09;;;;;;;;;;;6.40;99.90;;;;;;5001809;28;19921;-90
2022/01/15 04:55:44;;;;;;;;;;;5.20;99.90;;;;;;4975848;28;19929;-89
2022/01/15 04:58:28;;;;;;;;;;;5.80;99.90;;;;;;4979019;28;19921;-91
2022/01/15 05:01:04;;;;;;;;;;;;;;;;;;;;;
2022/01/15 05:03:45;;;;;;;;;;;;;;;;;;;;;
2022/01/15 05:06:16;;;;;;;;;;;5.10;99.90;;;;;;4999035;28;19976;-92
2022/01/15 05:08:46;;;;;;;;;;;5.60;99.90;;;;;;4999018;28;19925;-90
2022/01/15 05:11:31;;;;;;;;;;;4.90;99.90;;;;;;4999233;28;19926;-90
2022/01/15 05:14:00;;;;;;;;;;;6.90;99.90;;;;;;4999841;28;19971;-91
2022/01/15 05:16:55;;;;;;;;;;;;;;;;;;;;;
2022/01/15 05:19:37;;;;;;;;;;;;;;;;;;;;;
2022/01/15 05:22:20;;;;;;;;;;;7.30;99.90;;;;;;5000376;28;19991;-90
2022/01/15 05:25:19;;;;;;;;;;;;;;;;;;;;;
2022/01/15 05:28:15;;;;;;;;;;;;;;;;;;;;;
2022/01/15 05:31:07;;;;;;;;;;;;;;;;;;;;;
2022/01/15 05:33:33;;;;;;;;;;;5.90;99.90;;;;;;5008787;28;19976;-90
2022/01/15 05:36:02;;;;;;;;;;;6.30;99.90;;;;;;4995470;28;20323;-91
2022/01/15 05:38:40;;;;;;;;;;;;;;;;;;;;;
2022/01/15 05:41:23;;;;;;;;;;;5.40;99.90;;;;;;5012154;28;21177;-92
2022/01/15 05:46:40;;;;;;;;;;;6.40;99.90;;;;;;4997825;28;19922;-90
2022/01/15 05:49:29;;;;;;;;;;;6.20;99.90;;;;;;4994635;28;19922;-90
2022/01/15 05:52:12;;;;;;;;;;;7.50;99.90;;;;;;5007775;28;19925;-91
2022/01/15 05:54:50;;;;;;;;;;;;;;;;;;;;;
2022/01/15 05:57:30;;;;;;;;;;;4.90;99.90;;;;;;4980638;28;20107;-90
2022/01/15 06:00:01;;;;;;;;;;;5.80;99.90;;;;;;4963934;28;19922;-91
2022/01/15 06:02:40;;;;;;;;;;;;;;;;;;;;;
2022/01/15 06:07:57;;;;;;;;;;;5.90;99.90;;;;;;4977718;28;19922;-90
2022/01/15 06:13:36;;;;;;;;;;;5.10;99.90;;;;;;4980953;28;20323;-91
2022/01/15 06:16:13;;;;;;;;;;;;;;;;;;;;;
2022/01/15 06:19:09;;;;;;;;;;;;;;;;;;;;;
2022/01/15 06:21:37;;;;;;;;;;;5.40;99.90;;;;;;4979221;28;19976;-90
2022/01/15 06:24:13;;;;;;;;;;;5.80;99.90;;;;;;4978007;28;19929;-91
2022/01/15 06:29:34;;;;;;;;;;;;;;;;;;;;;
2022/01/15 06:35:21;;;;;;;;;;;;;;;;;;;;;
2022/01/15 06:41:09;;;;;;;;;;;5.70;99.90;;;;;;5013108;28;20012;-91
2022/01/15 06:43:58;;;;;;;;;;;5.20;99.90;;;;;;4998988;28;20360;-91
2022/01/15 06:46:41;;;;;;;;;;;4.80;99.90;;;;;;5013233;28;19929;-90
2022/01/15 06:49:15;;;;;;;;;;;5.50;99.90;;;;;;4999317;28;19921;-90
2022/01/15 06:52:00;;;;;;;;;;;;;;;;;;;;;
2022/01/15 06:54:35;;;;;;;;;;;5.60;99.90;;;;;;4991365;28;20000;-92
2022/01/15 06:57:05;;;;;;;;;;;5.70;99.90;;;;;;4993555;28;19968;-91
2022/01/15 06:59:52;;;;;;;;;;;5.80;99.90;;;;;;4992829;28;19929;-92
2022/01/15 07:02:19;;;;;;;;;;;5.60;99.90;;;;;;5006682;28;19976;-91
2022/01/15 07:05:00;;;;;;;;;;;5.70;99.90;;;;;;4995844;28;19928;-90
2022/01/15 07:10:29;;;;;;;;;;;;;;;;;;;;;
2022/01/15 07:12:59;;;;;;;;;;;6.70;99.90;;;;;;5007983;28;19930;-91
2022/01/15 07:15:48;;;;;;;;;;;6.00;99.90;;;;;;4993207;28;20284;-91
2022/01/15 07:21:58;;;;;;;;;;;;;;;;;;;;;
2022/01/15 08:26:52;;;;;;;;;;;;;;;;;;;;;
2022/01/15 08:54:57;;;;;;;;;;;;;;;;;;;;;
2022/01/15 09:04:18;;;;;;;;;;;;;;;;;;;;;
2022/01/15 09:07:10;;;;;;;;;;;;;;;;;;;;;
2022/01/15 09:38:10;;;;;;;;;;;;;;;;;;;;;
2022/01/15 09:47:21;;;;;;;;;;;;;;;;;;;;;
2022/01/15 09:53:16;;;;;;;;;;;;;;;;;;;;;
2022/01/15 09:56:15;;;;;;;;;;;;;;;;;;;;;
2022/01/15 10:05:27;;;;;;;;;;;;;;;;;;;;;
2022/01/15 10:08:49;;;;;;;;;;;;;;;;;;;;;
2022/01/15 10:15:02;;;;;;;;;;;;;;;;;;;;;
2022/01/15 10:17:53;;;;;;;;;;;5.30;99.90;;;;;;4863430;29;19932;-92
2022/01/15 10:20:37;;;;;;;;;;;;;;;;;;;;;
2022/01/15 10:23:39;;;;;;;;;;;;;;;;;;;;;
2022/01/15 10:29:11;;;;;;;;;;;;;;;;;;;;;
2022/01/15 10:35:23;;;;;;;;;;;;;;;;;;;;;
2022/01/15 10:41:14;;;;;;;;;;;4.20;99.90;;;;;;4898746;29;19923;-91
2022/01/15 10:53:46;;;;;;;;;;;;;;;;;;;;;
2022/01/15 11:06:46;;;;;;;;;;;5.40;99.90;;;;;;4810477;29;19925;-90
2022/01/15 11:18:28;;;;;;;;;;;6.50;99.90;;;;;;4897944;29;19927;-91
2022/01/15 11:21:23;;;;;;;;;;;;;;;;;;;;;
2022/01/15 11:27:07;;;;;;;;;;;6.60;99.90;;;;;;4894120;29;19923;-91
2022/01/15 11:30:07;;;;;;;;;;;;;;;;;;;;;
2022/01/15 11:36:19;;;;;;;;;;;5.30;99.90;;;;;;4925892;29;19929;-92
2022/01/15 11:42:24;;;;;;;;;;;;;;;;;;;;;
2022/01/15 11:45:19;;;;;;;;;;;5.20;99.90;;;;;;4954671;29;19926;-91
2022/01/15 11:48:05;;;;;;;;;;;5.30;99.90;;;;;;4937633;29;19937;-91
2022/01/15 11:50:53;;;;;;;;;;;5.60;99.90;;;;;;4958636;28;19922;-92
2022/01/15 11:53:47;;;;;;;;;;;;;;;;;;;;;
2022/01/15 11:56:46;;;;;;;;;;;;;;;;;;;;;
2022/01/15 12:05:46;;;;;;;;;;;;;;;;;;;;;
2022/01/15 12:08:32;;;;;;;;;;;6.00;99.90;;;;;;4960743;28;19994;-91
2022/01/15 12:14:37;;;;;;;;;;;;;;;;;;;;;
2022/01/15 12:17:53;;;;;;;;;;;;;;;;;;;;;
2022/01/15 12:26:21;;;;;;;;;;;5.30;99.90;;;;;;4959154;28;19937;-90
2022/01/15 12:29:02;;;;;;;;;;;;;;;;;;;;;
2022/01/15 12:32:00;;;;;;;;;;;4.90;99.90;;;;;;4966743;28;19926;-91
2022/01/15 12:40:43;;;;;;;;;;;;;;;;;;;;;
2022/01/15 12:43:14;;;;;;;;;;;5.20;99.90;;;;;;4959512;28;20009;-91
2022/01/15 12:46:07;;;;;;;;;;;5.30;99.90;;;;;;4944766;28;19922;-92
2022/01/15 12:48:43;;;;;;;;;;;6.50;99.90;;;;;;4947129;28;20368;-90
2022/01/15 12:51:14;;;;;;;;;;;6.00;99.90;;;;;;4944246;28;20388;-90
2022/01/15 12:53:45;;;;;;;;;;;4.50;99.90;;;;;;4943569;28;19945;-90
2022/01/15 12:59:51;;;;;;;;;;;5.10;99.90;;;;;;4954906;28;19922;-92
2022/01/15 13:05:48;;;;;;;;;;;6.20;99.90;;;;;;4965913;28;20391;-92
2022/01/15 13:08:38;;;;;;;;;;;5.30;99.90;;;;;;4947104;28;19945;-93
2022/01/15 13:11:48;;;;;;;;;;;5.00;99.90;;;;;;4943741;28;19976;-91
2022/01/15 13:14:37;;;;;;;;;;;;;;;;;;;;;
2022/01/15 13:20:55;;;;;;;;;;;;;;;;;;;;;
2022/01/15 13:23:16;;;;;;;;;;;5.00;99.90;;;;;;4954337;28;20357;-90
2022/01/15 13:26:00;;;;;;;;;;;;;;;;;;;;;
2022/01/15 13:29:17;;;;;;;;;;;;;;;;;;;;;
2022/01/15 13:34:41;;;;;;;;;;;5.00;99.90;;;;;;4964042;28;19932;-92
2022/01/15 13:37:25;;;;;;;;;;;4.80;99.90;;;;;;4928357;28;19934;-91
2022/01/15 13:43:26;;;;;;;;;;;;;;;;;;;;;
2022/01/15 13:55:37;;;;;;;;;;;4.80;99.90;;;;;;4958837;28;20300;-92
2022/01/15 14:01:10;;;;;;;;;;;;;;;;;;;;;
2022/01/15 14:07:33;;;;;;;;;;;;;;;;;;;;;
2022/01/15 14:10:18;;;;;;;;;;;;;;;;;;;;;
2022/01/15 14:13:17;;;;;;;;;;;;;;;;;;;;;
2022/01/15 14:22:44;;;;;;;;;;;5.20;99.90;;;;;;4860495;29;20068;-90
2022/01/15 14:28:22;;;;;;;;;;;5.40;99.90;;;;;;4865009;29;20086;-93
2022/01/15 14:33:57;;;;;;;;;;;4.80;99.90;;;;;;4927124;29;19926;-91
2022/01/15 14:36:38;;;;;;;;;;;;;;;;;;;;;
2022/01/15 14:39:42;;;;;;;;;;;;;;;;;;;;;
2022/01/15 14:54:01;;;;;;;;;;;4.50;99.90;;;;;;4914132;29;20490;-92
2022/01/15 15:08:45;;;;;;;;;;;4.80;99.90;;;;;;4924510;29;19945;-90
2022/01/15 15:15:08;;;;;;;;;;;;;;;;;;;;;
2022/01/15 15:17:47;;;;;;;;;;;4.10;99.90;;;;;;4926659;29;19933;-91
2022/01/15 15:23:30;;;;;;;;;;;;;;;;;;;;;
2022/01/15 15:26:24;;;;;;;;;;;;;;;;;;;;;
2022/01/15 15:29:01;;;;;;;;;;;3.40;99.90;;;;;;4923249;29;19926;-91
2022/01/15 15:37:58;;;;;;;;;;;;;;;;;;;;;
2022/01/15 15:49:37;;;;;;;;;;;5.00;99.90;;;;;;4924560;29;19922;-92
2022/01/15 15:55:48;;;;;;;;;;;4.30;99.90;;;;;;4924894;29;19926;-91
2022/01/15 15:58:48;;;;;;;;;;;;;;;;;;;;;
2022/01/15 16:01:36;;;;;;;;;;;4.30;99.90;;;;;;4936943;29;19978;-91
2022/01/15 16:04:24;;;;;;;;;;;;;;;;;;;;;
2022/01/15 16:07:34;;;;;;;;;;;;;;;;;;;;;
2022/01/15 16:10:37;;;;;;;;;;;;;;;;;;;;;
2022/01/15 16:13:41;;;;;;;;;;;;;;;;;;;;;
2022/01/15 16:16:14;;;;;;;;;;;;;;;;;;;;;
2022/01/15 16:18:58;;;;;;;;;;;4.90;99.90;;;;;;4922788;29;19923;-92
2022/01/15 16:24:41;;;;;;;;;;;5.20;99.90;;;;;;4929105;29;20296;-90
2022/01/15 16:31:06;;;;;;;;;;;;;;;;;;;;;
2022/01/15 16:34:13;;;;;;;;;;;;;;;;;;;;;
2022/01/15 16:42:58;;;;;;;;;;;;;;;;;;;;;
2022/01/15 16:45:58;;;;;;;;;;;5.70;99.90;;;;;;4940299;29;19922;-91
2022/01/15 16:49:07;;;;;;;;;;;;;;;;;;;;;
2022/01/15 16:52:14;;;;;;;;;;;;;;;;;;;;;
2022/01/15 17:01:21;;;;;;;;;;;;;;;;;;;;;
2022/01/15 17:13:30;;;;;;;;;;;4.20;99.90;;;;;;4931735;29;19957;-91
2022/01/15 17:16:23;;;;;;;;;;;5.40;99.90;;;;;;4936786;28;19926;-91
2022/01/15 17:22:37;;;;;;;;;;;;;;;;;;;;;
2022/01/15 17:25:36;;;;;;;;;;;;;;;;;;;;;
2022/01/15 17:31:41;;;;;;;;;;;;;;;;;;;;;
2022/01/15 17:47:10;;;;;;;;;;;4.10;99.90;;;;;;4949926;28;19922;-91
2022/01/15 17:49:38;;;;;;;;;;;4.20;99.90;;;;;;4931255;28;20012;-90
2022/01/15 17:52:08;;;;;;;;;;;3.70;99.90;;;;;;4942182;28;19926;-90
2022/01/15 17:54:34;;;;;;;;;;;4.20;99.90;;;;;;4941881;28;20202;-88
2022/01/15 17:56:59;;;;;;;;;;;4.10;99.90;;;;;;4941281;28;19945;-89
2022/01/15 17:59:25;;;;;;;;;;;5.30;99.90;;;;;;4941596;28;19922;-90
2022/01/15 18:01:50;;;;;;;;;;;4.70;99.90;;;;;;4941830;28;19922;-89
2022/01/15 18:04:20;;;;;;;;;;;5.00;99.90;;;;;;4941630;28;19922;-90
2022/01/15 18:06:48;;;;;;;;;;;4.20;99.90;;;;;;4941404;28;19986;-91
2022/01/15 18:09:34;;;;;;;;;;;4.20;99.90;;;;;;4954355;28;19993;-91
2022/01/15 18:14:51;;;;;;;;;;;4.70;99.90;;;;;;4976403;28;19933;-89
2022/01/15 18:17:34;;;;;;;;;;;4.20;99.90;;;;;;4916322;28;19945;-89
2022/01/15 18:20:30;;;;;;;;;;;;;;;;;;;;;
2022/01/15 18:23:06;;;;;;;;;;;;;;;;;;;;;
2022/01/15 18:25:40;;;;;;;;;;;5.30;99.90;;;;;;4936928;28;19925;-91
2022/01/15 18:31:37;;;;;;;;;;;4.20;99.90;;;;;;4937248;28;20351;-90
2022/01/15 18:34:22;;;;;;;;;;;4.10;99.90;;;;;;4940214;29;20445;-90
2022/01/15 18:36:58;;;;;;;;;;;;;;;;;;;;;
2022/01/15 18:42:22;;;;;;;;;;;4.90;99.90;;;;;;4934267;28;19922;-90
2022/01/15 18:44:47;;;;;;;;;;;3.80;99.90;;;;;;4926387;28;19978;-89
2022/01/15 18:47:19;;;;;;;;;;;4.60;99.90;;;;;;4942276;28;19922;-91
2022/01/15 18:52:33;;;;;;;;;;;3.50;99.90;;;;;;4930962;28;20304;-90
2022/01/15 18:55:29;;;;;;;;;;;3.90;99.90;;;;;;4926143;28;19950;-90
2022/01/15 18:58:25;;;;;;;;;;;4.20;99.90;;;;;;4957847;28;20017;-91
2022/01/15 19:01:06;;;;;;;;;;;;;;;;;;;;;
2022/01/15 19:04:01;;;;;;;;;;;4.60;99.90;;;;;;4929978;28;19974;-90
2022/01/15 19:06:56;;;;;;;;;;;;;;;;;;;;;
2022/01/15 19:09:37;;;;;;;;;;;;;;;;;;;;;
2022/01/15 19:12:14;;;;;;;;;;;3.60;99.90;;;;;;4938075;28;20025;-89
2022/01/15 19:14:40;;;;;;;;;;;4.10;99.90;;;;;;4942363;28;20017;-88
2022/01/15 19:17:34;;;;;;;;;;;;;;;;;;;;;
2022/01/15 19:20:20;;;;;;;;;;;5.20;99.90;;;;;;4944247;28;20325;-90
2022/01/15 19:23:12;;;;;;;;;;;4.80;99.90;;;;;;4923874;28;19926;-93
2022/01/15 19:25:57;;;;;;;;;;;3.00;99.90;;;;;;4957300;28;20456;-91
2022/01/15 19:28:42;;;;;;;;;;;4.00;99.90;;;;;;4926538;28;19922;-89
2022/01/15 19:31:35;;;;;;;;;;;;;;;;;;;;;
2022/01/15 19:36:54;;;;;;;;;;;5.00;99.90;;;;;;4949042;28;19933;-90
2022/01/15 19:39:22;;;;;;;;;;;5.40;99.90;;;;;;4917688;28;19929;-89
2022/01/15 19:41:50;;;;;;;;;;;4.40;99.90;;;;;;4914519;28;19933;-91
2022/01/15 19:44:40;;;;;;;;;;;3.80;99.90;;;;;;4967236;28;19922;-90
2022/01/15 19:47:06;;;;;;;;;;;4.20;99.90;;;;;;4915474;28;19969;-89
2022/01/15 19:52:56;;;;;;;;;;;;;;;;;;;;;
2022/01/15 19:58:30;;;;;;;;;;;3.80;99.90;;;;;;4953043;28;19929;-92
2022/01/15 20:01:03;;;;;;;;;;;4.90;99.90;;;;;;4914301;28;20006;-90
2022/01/15 20:03:59;;;;;;;;;;;;;;;;;;;;;
2022/01/15 20:06:54;;;;;;;;;;;3.90;99.90;;;;;;4962664;28;20005;-92
2022/01/15 20:12:15;;;;;;;;;;;4.50;99.90;;;;;;4955827;28;20401;-91
2022/01/15 20:14:41;;;;;;;;;;;4.50;99.90;;;;;;4951308;28;19933;-87
2022/01/15 20:17:11;;;;;;;;;;;3.70;99.90;;;;;;4921436;28;19922;-89
2022/01/15 20:19:49;;;;;;;;;;;;;;;;;;;;;
2022/01/15 20:22:15;;;;;;;;;;;3.70;99.90;;;;;;4934674;28;19922;-89
2022/01/15 20:24:49;;;;;;;;;;;3.90;99.90;;;;;;4922584;28;19977;-90
2022/01/15 20:27:25;;;;;;;;;;;3.80;99.90;;;;;;4919872;28;19922;-90
2022/01/15 20:30:11;;;;;;;;;;;4.40;99.90;;;;;;4924256;28;19970;-89
2022/01/15 20:32:37;;;;;;;;;;;3.80;99.90;;;;;;4948384;28;19926;-88
2022/01/15 20:35:02;;;;;;;;;;;4.20;99.90;;;;;;4930500;28;19929;-90
2022/01/15 20:46:31;;;;;;;;;;;3.50;99.90;;;;;;4952622;28;20041;-89
2022/01/15 20:52:24;;;;;;;;;;;2.90;99.90;;;;;;4945482;28;19961;-89
2022/01/15 20:54:58;;;;;;;;;;;3.20;99.90;;;;;;4951663;28;19973;-89
2022/01/15 20:57:33;;;;;;;;;;;3.80;99.90;;;;;;4926971;28;19972;-90
2022/01/15 21:00:56;;;;;;;;;;;;;;;;;;;;;
2022/01/15 21:03:13;;;;;;;;;;;3.40;99.90;;;;;;4942006;29;19994;-90
2022/01/15 21:05:55;;;;;;;;;;;;;;;;;;;;;
2022/01/15 21:08:30;;;;;;;;;;;5.00;99.90;;;;;;4944384;28;19954;-91
2022/01/15 21:10:55;;;;;;;;;;;3.40;99.90;;;;;;4921302;28;19922;-89
2022/01/15 21:13:33;;;;;;;;;;;;;;;;;;;;;
2022/01/15 21:15:59;;;;;;;;;;;4.10;99.90;;;;;;4931431;29;19974;-89
2022/01/15 21:18:27;;;;;;;;;;;3.50;99.90;;;;;;4906918;28;19927;-89
2022/01/15 21:21:10;;;;;;;;;;;4.50;99.90;;;;;;4909406;29;19928;-89
2022/01/15 21:23:57;;;;;;;;;;;3.80;99.90;;;;;;4908640;29;19973;-90
2022/01/15 21:26:24;;;;;;;;;;;2.90;99.90;;;;;;4926524;29;19923;-88
2022/01/15 21:28:59;;;;;;;;;;;4.00;99.90;;;;;;4925210;29;19933;-90
2022/01/15 21:31:35;;;;;;;;;;;3.60;99.90;;;;;;4904105;29;19923;-90
2022/01/15 21:34:19;;;;;;;;;;;;;;;;;;;;;
2022/01/15 21:37:03;;;;;;;;;;;4.10;99.90;;;;;;4922458;29;19923;-90
2022/01/15 21:39:53;;;;;;;;;;;3.10;99.90;;;;;;4920524;29;19926;-90
2022/01/15 21:42:21;;;;;;;;;;;3.70;99.90;;;;;;4904361;29;19961;-90
2022/01/15 21:45:07;;;;;;;;;;;3.90;99.90;;;;;;4909119;29;19929;-91
2022/01/15 21:47:51;;;;;;;;;;;2.30;99.90;;;;;;4928655;29;19946;-91
2022/01/15 21:50:43;;;;;;;;;;;3.40;99.90;;;;;;4908515;29;19922;-90
2022/01/15 21:53:21;;;;;;;;;;;;;;;;;;;;;
2022/01/15 21:55:59;;;;;;;;;;;;;;;;;;;;;
2022/01/15 21:58:36;;;;;;;;;;;3.70;99.90;;;;;;4925428;28;19923;-90
2022/01/15 22:01:23;;;;;;;;;;;4.00;99.90;;;;;;4924261;29;19922;-91
2022/01/15 22:03:50;;;;;;;;;;;4.30;99.90;;;;;;4926723;29;20251;-89
2022/01/15 22:06:25;;;;;;;;;;;;;;;;;;;;;
2022/01/15 22:09:08;;;;;;;;;;;;;;;;;;;;;
2022/01/15 22:11:46;;;;;;;;;;;2.80;99.90;;;;;;4925450;29;19922;-89
2022/01/15 22:17:49;;;;;;;;;;;2.90;99.90;;;;;;4939351;29;20341;-92
2022/01/15 22:20:19;;;;;;;;;;;2.90;99.90;;;;;;4939892;29;19950;-89
2022/01/15 22:23:07;;;;;;;;;;;2.00;99.90;;;;;;4908891;29;19922;-91
2022/01/15 22:25:56;;;;;;;;;;;2.40;99.90;;;;;;4938931;29;19926;-90
2022/01/15 22:28:29;;;;;;;;;;;3.10;99.90;;;;;;4908867;28;20025;-89
2022/01/15 22:31:02;;;;;;;;;;;4.20;99.90;;;;;;4909164;29;19981;-91
2022/01/15 22:33:38;;;;;;;;;;;;;;;;;;;;;
2022/01/15 22:36:31;;;;;;;;;;;;;;;;;;;;;
2022/01/15 22:39:22;;;;;;;;;;;2.80;99.90;;;;;;4925756;29;19977;-90
2022/01/15 22:41:58;;;;;;;;;;;;;;;;;;;;;
2022/01/15 22:44:44;;;;;;;;;;;3.30;99.90;;;;;;4925039;29;19978;-89
2022/01/15 22:47:12;;;;;;;;;;;2.60;99.90;;;;;;4925627;29;19977;-89
2022/01/15 22:49:40;;;;;;;;;;;2.40;99.90;;;;;;4907714;29;19923;-91
2022/01/15 22:52:08;;;;;;;;;;;2.00;99.90;;;;;;4907394;29;19922;-89
2022/01/15 22:54:39;;;;;;;;;;;2.70;99.90;;;;;;4907939;29;19933;-90
2022/01/15 22:57:23;;;;;;;;;;;3.80;99.90;;;;;;4908422;29;20365;-92
2022/01/15 23:00:04;;;;;;;;;;;;;;;;;;;;;
2022/01/15 23:02:40;;;;;;;;;;;2.60;99.90;;;;;;4924485;29;19922;-90
2022/01/15 23:05:05;;;;;;;;;;;3.40;99.90;;;;;;4908173;29;19974;-88
2022/01/15 23:07:33;;;;;;;;;;;2.40;99.90;;;;;;4907113;29;19984;-91
2022/01/15 23:10:07;;;;;;;;;;;3.50;99.90;;;;;;4906984;29;19930;-89
2022/01/15 23:12:32;;;;;;;;;;;2.70;99.90;;;;;;4908227;29;19922;-89
2022/01/15 23:15:12;;;;;;;;;;;2.40;99.90;;;;;;4926032;28;20783;-88
2022/01/15 23:17:56;;;;;;;;;;;;;;;;;;;;;
2022/01/15 23:20:22;;;;;;;;;;;2.30;99.90;;;;;;4959095;28;19928;-90
2022/01/15 23:22:50;;;;;;;;;;;2.30;99.90;;;;;;4941845;28;19926;-91
2022/01/15 23:25:27;;;;;;;;;;;2.80;99.90;;;;;;4930313;29;19934;-93
2022/01/15 23:28:16;;;;;;;;;;;3.10;99.90;;;;;;4933256;28;19922;-94
2022/01/15 23:30:44;;;;;;;;;;;2.70;99.90;;;;;;4941598;28;19923;-90
2022/01/15 23:33:22;;;;;;;;;;;;;;;;;;;;;
2022/01/15 23:35:59;;;;;;;;;;;;;;;;;;;;;
2022/01/15 23:38:35;;;;;;;;;;;2.10;99.90;;;;;;4958735;28;19929;-89
2022/01/15 23:41:25;;;;;;;;;;;1.80;99.90;;;;;;4942376;28;19922;-90
2022/01/15 23:44:14;;;;;;;;;;;;;;;;;;;;;
2022/01/15 23:46:47;;;;;;;;;;;3.30;99.90;;;;;;4960044;28;20336;-90
2022/01/15 23:49:19;;;;;;;;;;;3.20;99.90;;;;;;4942094;28;19928;-91
2022/01/15 23:51:56;;;;;;;;;;;2.00;99.90;;;;;;4941960;28;20364;-89
2022/01/15 23:54:29;;;;;;;;;;;1.70;99.90;;;;;;4943283;28;19926;-89
2022/01/15 23:57:02;;;;;;;;;;;1.80;99.90;;;;;;4941642;28;19945;-88
2022/01/15 23:59:35;;;;;;;;;;;2.60;99.90;;;;;;4942305;28;19929;-89
